ěÝzenÝ letovÚho provozu ╚eskÚ republiky
Letiste: LKNA Aktualizace: 23.11.2020 18:57:23  UTC
 METAR LKNA 23.11. 19:00 ...
METAR LKNA 231900Z 29007KT 7000 NSC 02/01 Q1028 NOSIG RMK WHT WHT=
 TAF LKNA 23.11. 17:00 ...
TAF LKNA 231700Z 2318/2418 30007KT CAVOK      BECMG 2321/2323 3000 MIFG BR BKN004      TEMPO 2400/2411 VRB02KT 0400 FZFG VV001      BECMG 2408/2410 14005KT      TEMPO 2413/2418 8000 NSC=